sensor_id;sensor_type;location;lat;lon;timestamp;P1;durP1;ratioP1;P2;durP2;ratioP2
70953;SDS011;58618;47.490;8.736;2023-03-21T00:01:18;1.17;;;0.90;;
70953;SDS011;58618;47.490;8.736;2023-03-21T00:04:05;1.97;;;0.80;;
70953;SDS011;58618;47.490;8.736;2023-03-21T00:06:53;1.17;;;0.90;;
70953;SDS011;58618;47.490;8.736;2023-03-21T00:09:41;0.95;;;0.82;;
70953;SDS011;58618;47.490;8.736;2023-03-21T00:12:28;1.15;;;0.90;;
70953;SDS011;58618;47.490;8.736;2023-03-21T00:15:17;2.63;;;0.80;;
70953;SDS011;58618;47.490;8.736;2023-03-21T00:18:05;1.27;;;0.87;;
70953;SDS011;58618;47.490;8.736;2023-03-21T00:20:56;1.08;;;0.80;;
70953;SDS011;58618;47.490;8.736;2023-03-21T00:23:47;1.98;;;1.15;;
70953;SDS011;58618;47.490;8.736;2023-03-21T00:26:35;1.08;;;0.90;;
70953;SDS011;58618;47.490;8.736;2023-03-21T00:29:23;1.38;;;0.85;;
70953;SDS011;58618;47.490;8.736;2023-03-21T00:32:10;1.27;;;0.90;;
70953;SDS011;58618;47.490;8.736;2023-03-21T00:34:58;1.20;;;0.80;;
70953;SDS011;58618;47.490;8.736;2023-03-21T00:37:45;1.58;;;0.98;;
70953;SDS011;58618;47.490;8.736;2023-03-21T00:40:32;2.08;;;1.50;;
70953;SDS011;58618;47.490;8.736;2023-03-21T00:43:21;1.73;;;0.98;;
70953;SDS011;58618;47.490;8.736;2023-03-21T00:46:14;1.60;;;0.90;;
70953;SDS011;58618;47.490;8.736;2023-03-21T00:49:02;2.13;;;0.75;;
70953;SDS011;58618;47.490;8.736;2023-03-21T00:51:49;1.35;;;0.90;;
70953;SDS011;58618;47.490;8.736;2023-03-21T00:54:37;1.52;;;1.05;;
70953;SDS011;58618;47.490;8.736;2023-03-21T00:57:24;1.52;;;0.93;;
70953;SDS011;58618;47.490;8.736;2023-03-21T01:00:13;6.47;;;0.90;;
70953;SDS011;58618;47.490;8.736;2023-03-21T01:03:03;1.08;;;0.68;;
70953;SDS011;58618;47.490;8.736;2023-03-21T01:05:52;1.08;;;0.60;;
70953;SDS011;58618;47.490;8.736;2023-03-21T01:08:50;1.30;;;0.80;;
70953;SDS011;58618;47.490;8.736;2023-03-21T01:11:37;0.85;;;0.70;;
70953;SDS011;58618;47.490;8.736;2023-03-21T01:14:24;0.80;;;0.70;;
70953;SDS011;58618;47.490;8.736;2023-03-21T01:17:13;1.58;;;0.88;;
70953;SDS011;58618;47.490;8.736;2023-03-21T01:20:00;1.23;;;1.00;;
70953;SDS011;58618;47.490;8.736;2023-03-21T01:22:51;1.40;;;0.85;;
70953;SDS011;58618;47.490;8.736;2023-03-21T01:25:38;1.02;;;0.90;;
70953;SDS011;58618;47.490;8.736;2023-03-21T01:28:26;8.07;;;1.00;;
70953;SDS011;58618;47.490;8.736;2023-03-21T01:31:15;0.73;;;0.63;;
70953;SDS011;58618;47.490;8.736;2023-03-21T01:34:04;1.02;;;0.80;;
70953;SDS011;58618;47.490;8.736;2023-03-21T01:36:52;1.17;;;0.77;;
70953;SDS011;58618;47.490;8.736;2023-03-21T01:39:39;1.35;;;0.85;;
70953;SDS011;58618;47.490;8.736;2023-03-21T01:42:26;1.90;;;0.90;;
70953;SDS011;58618;47.490;8.736;2023-03-21T01:48:34;1.48;;;1.00;;
70953;SDS011;58618;47.490;8.736;2023-03-21T01:51:26;2.20;;;1.10;;
70953;SDS011;58618;47.490;8.736;2023-03-21T01:54:16;1.00;;;0.90;;
70953;SDS011;58618;47.490;8.736;2023-03-21T01:57:10;2.97;;;1.03;;
70953;SDS011;58618;47.490;8.736;2023-03-21T02:00:03;1.17;;;0.93;;
70953;SDS011;58618;47.490;8.736;2023-03-21T02:02:57;0.77;;;0.70;;
70953;SDS011;58618;47.490;8.736;2023-03-21T02:05:48;0.80;;;0.68;;
70953;SDS011;58618;47.490;8.736;2023-03-21T02:08:41;1.00;;;0.90;;
70953;SDS011;58618;47.490;8.736;2023-03-21T02:11:28;1.80;;;0.70;;
70953;SDS011;58618;47.490;8.736;2023-03-21T02:14:17;2.03;;;0.90;;
70953;SDS011;58618;47.490;8.736;2023-03-21T02:17:07;1.10;;;0.80;;
70953;SDS011;58618;47.490;8.736;2023-03-21T02:20:15;1.00;;;0.80;;
70953;SDS011;58618;47.490;8.736;2023-03-21T02:23:37;0.80;;;0.70;;
70953;SDS011;58618;47.490;8.736;2023-03-21T02:26:54;0.70;;;0.60;;
70953;SDS011;58618;47.490;8.736;2023-03-21T02:29:54;0.95;;;0.63;;
70953;SDS011;58618;47.490;8.736;2023-03-21T02:33:18;1.65;;;0.80;;
70953;SDS011;58618;47.490;8.736;2023-03-21T02:36:23;4.68;;;1.15;;
70953;SDS011;58618;47.490;8.736;2023-03-21T02:39:18;1.10;;;0.60;;
70953;SDS011;58618;47.490;8.736;2023-03-21T02:42:13;0.90;;;0.70;;
70953;SDS011;58618;47.490;8.736;2023-03-21T02:45:07;1.45;;;0.80;;
70953;SDS011;58618;47.490;8.736;2023-03-21T02:48:02;0.60;;;0.60;;
70953;SDS011;58618;47.490;8.736;2023-03-21T02:50:55;0.73;;;0.63;;
70953;SDS011;58618;47.490;8.736;2023-03-21T02:53:46;1.10;;;1.00;;
70953;SDS011;58618;47.490;8.736;2023-03-21T02:56:38;1.37;;;0.80;;
70953;SDS011;58618;47.490;8.736;2023-03-21T02:59:26;1.77;;;0.90;;
70953;SDS011;58618;47.490;8.736;2023-03-21T03:02:15;1.92;;;1.17;;
70953;SDS011;58618;47.490;8.736;2023-03-21T03:05:11;1.52;;;1.00;;
70953;SDS011;58618;47.490;8.736;2023-03-21T03:08:04;1.38;;;0.68;;
70953;SDS011;58618;47.490;8.736;2023-03-21T03:11:07;0.50;;;0.50;;
70953;SDS011;58618;47.490;8.736;2023-03-21T03:17:25;1.27;;;0.77;;
70953;SDS011;58618;47.490;8.736;2023-03-21T03:20:29;0.95;;;0.63;;
70953;SDS011;58618;47.490;8.736;2023-03-21T03:23:26;1.35;;;1.13;;
70953;SDS011;58618;47.490;8.736;2023-03-21T03:26:16;0.73;;;0.57;;
70953;SDS011;58618;47.490;8.736;2023-03-21T03:29:08;1.70;;;0.90;;
70953;SDS011;58618;47.490;8.736;2023-03-21T03:32:04;0.98;;;0.65;;
70953;SDS011;58618;47.490;8.736;2023-03-21T03:34:57;5.22;;;1.17;;
70953;SDS011;58618;47.490;8.736;2023-03-21T03:37:46;1.50;;;1.10;;
70953;SDS011;58618;47.490;8.736;2023-03-21T03:40:38;3.13;;;0.97;;
70953;SDS011;58618;47.490;8.736;2023-03-21T03:43:28;0.75;;;0.68;;
70953;SDS011;58618;47.490;8.736;2023-03-21T03:46:22;1.27;;;0.95;;
70953;SDS011;58618;47.490;8.736;2023-03-21T03:49:16;1.45;;;0.82;;
70953;SDS011;58618;47.490;8.736;2023-03-21T03:52:08;1.13;;;0.95;;
70953;SDS011;58618;47.490;8.736;2023-03-21T03:55:03;1.47;;;1.17;;
70953;SDS011;58618;47.490;8.736;2023-03-21T03:57:52;2.22;;;0.93;;
70953;SDS011;58618;47.490;8.736;2023-03-21T04:00:41;1.58;;;1.10;;
70953;SDS011;58618;47.490;8.736;2023-03-21T04:03:28;1.15;;;0.90;;
70953;SDS011;58618;47.490;8.736;2023-03-21T04:06:17;0.85;;;0.75;;
70953;SDS011;58618;47.490;8.736;2023-03-21T04:09:06;1.67;;;1.07;;
70953;SDS011;58618;47.490;8.736;2023-03-21T04:11:54;1.00;;;0.70;;
70953;SDS011;58618;47.490;8.736;2023-03-21T04:14:42;1.20;;;0.90;;
70953;SDS011;58618;47.490;8.736;2023-03-21T04:17:29;1.63;;;1.00;;
70953;SDS011;58618;47.490;8.736;2023-03-21T04:20:18;2.55;;;1.13;;
70953;SDS011;58618;47.490;8.736;2023-03-21T04:23:06;2.23;;;1.17;;
70953;SDS011;58618;47.490;8.736;2023-03-21T04:25:54;1.48;;;0.88;;
70953;SDS011;58618;47.490;8.736;2023-03-21T04:28:41;1.60;;;0.73;;
70953;SDS011;58618;47.490;8.736;2023-03-21T04:31:28;1.10;;;0.82;;
70953;SDS011;58618;47.490;8.736;2023-03-21T04:34:18;2.00;;;1.10;;
70953;SDS011;58618;47.490;8.736;2023-03-21T04:37:08;1.63;;;1.00;;
70953;SDS011;58618;47.490;8.736;2023-03-21T04:39:58;3.80;;;0.75;;
70953;SDS011;58618;47.490;8.736;2023-03-21T04:42:46;1.10;;;0.95;;
70953;SDS011;58618;47.490;8.736;2023-03-21T04:45:33;1.00;;;0.90;;
70953;SDS011;58618;47.490;8.736;2023-03-21T04:48:21;1.10;;;0.90;;
70953;SDS011;58618;47.490;8.736;2023-03-21T04:51:10;1.33;;;0.80;;
70953;SDS011;58618;47.490;8.736;2023-03-21T04:53:57;0.93;;;0.77;;
70953;SDS011;58618;47.490;8.736;2023-03-21T04:56:46;1.90;;;1.15;;
70953;SDS011;58618;47.490;8.736;2023-03-21T04:59:33;0.65;;;0.65;;
70953;SDS011;58618;47.490;8.736;2023-03-21T05:02:21;1.85;;;1.23;;
70953;SDS011;58618;47.490;8.736;2023-03-21T05:05:08;1.20;;;0.97;;
70953;SDS011;58618;47.490;8.736;2023-03-21T05:07:56;1.25;;;1.05;;
70953;SDS011;58618;47.490;8.736;2023-03-21T05:10:45;2.35;;;1.10;;
70953;SDS011;58618;47.490;8.736;2023-03-21T05:13:34;1.35;;;1.00;;
70953;SDS011;58618;47.490;8.736;2023-03-21T05:16:21;2.15;;;1.30;;
70953;SDS011;58618;47.490;8.736;2023-03-21T05:19:11;1.13;;;0.73;;
70953;SDS011;58618;47.490;8.736;2023-03-21T05:21:59;1.35;;;0.80;;
70953;SDS011;58618;47.490;8.736;2023-03-21T05:24:49;1.33;;;1.00;;
70953;SDS011;58618;47.490;8.736;2023-03-21T05:27:37;1.27;;;1.10;;
70953;SDS011;58618;47.490;8.736;2023-03-21T05:30:31;0.93;;;0.75;;
70953;SDS011;58618;47.490;8.736;2023-03-21T05:33:19;3.07;;;0.70;;
70953;SDS011;58618;47.490;8.736;2023-03-21T05:36:07;1.98;;;0.90;;
70953;SDS011;58618;47.490;8.736;2023-03-21T05:38:55;1.48;;;0.93;;
70953;SDS011;58618;47.490;8.736;2023-03-21T05:41:42;3.33;;;1.23;;
70953;SDS011;58618;47.490;8.736;2023-03-21T05:44:30;2.22;;;1.33;;
70953;SDS011;58618;47.490;8.736;2023-03-21T05:47:18;0.87;;;0.77;;
70953;SDS011;58618;47.490;8.736;2023-03-21T05:50:06;4.13;;;1.45;;
70953;SDS011;58618;47.490;8.736;2023-03-21T05:52:54;1.13;;;0.90;;
70953;SDS011;58618;47.490;8.736;2023-03-21T05:55:41;1.60;;;1.13;;
70953;SDS011;58618;47.490;8.736;2023-03-21T05:58:29;2.08;;;1.50;;
70953;SDS011;58618;47.490;8.736;2023-03-21T06:01:16;1.20;;;1.03;;
70953;SDS011;58618;47.490;8.736;2023-03-21T06:04:05;2.17;;;1.05;;
70953;SDS011;58618;47.490;8.736;2023-03-21T06:06:52;1.50;;;1.10;;
70953;SDS011;58618;47.490;8.736;2023-03-21T06:09:40;1.48;;;1.00;;
70953;SDS011;58618;47.490;8.736;2023-03-21T06:12:27;2.83;;;1.33;;
70953;SDS011;58618;47.490;8.736;2023-03-21T06:15:15;1.70;;;1.33;;
70953;SDS011;58618;47.490;8.736;2023-03-21T06:18:02;1.25;;;1.10;;
70953;SDS011;58618;47.490;8.736;2023-03-21T06:20:51;1.70;;;1.38;;
70953;SDS011;58618;47.490;8.736;2023-03-21T06:23:39;1.10;;;0.88;;
70953;SDS011;58618;47.490;8.736;2023-03-21T06:26:26;7.35;;;1.63;;
70953;SDS011;58618;47.490;8.736;2023-03-21T06:29:13;2.07;;;1.17;;
70953;SDS011;58618;47.490;8.736;2023-03-21T06:32:01;2.00;;;1.27;;
70953;SDS011;58618;47.490;8.736;2023-03-21T06:34:48;2.20;;;1.40;;
70953;SDS011;58618;47.490;8.736;2023-03-21T06:37:37;2.47;;;1.10;;
70953;SDS011;58618;47.490;8.736;2023-03-21T06:40:24;1.83;;;1.13;;
70953;SDS011;58618;47.490;8.736;2023-03-21T06:43:12;1.70;;;1.30;;
70953;SDS011;58618;47.490;8.736;2023-03-21T06:45:59;2.05;;;1.42;;
70953;SDS011;58618;47.490;8.736;2023-03-21T06:48:47;2.70;;;1.80;;
70953;SDS011;58618;47.490;8.736;2023-03-21T06:51:34;2.33;;;1.25;;
70953;SDS011;58618;47.490;8.736;2023-03-21T06:54:23;2.85;;;1.70;;
70953;SDS011;58618;47.490;8.736;2023-03-21T06:57:11;2.40;;;1.70;;
70953;SDS011;58618;47.490;8.736;2023-03-21T06:59:58;4.47;;;1.65;;
70953;SDS011;58618;47.490;8.736;2023-03-21T07:02:45;2.75;;;1.98;;
70953;SDS011;58618;47.490;8.736;2023-03-21T07:05:33;2.58;;;1.70;;
70953;SDS011;58618;47.490;8.736;2023-03-21T07:08:21;2.88;;;2.00;;
70953;SDS011;58618;47.490;8.736;2023-03-21T07:11:10;2.60;;;1.83;;
70953;SDS011;58618;47.490;8.736;2023-03-21T07:13:57;2.65;;;1.60;;
70953;SDS011;58618;47.490;8.736;2023-03-21T07:16:44;2.17;;;1.80;;
70953;SDS011;58618;47.490;8.736;2023-03-21T07:19:32;2.10;;;1.80;;
70953;SDS011;58618;47.490;8.736;2023-03-21T07:22:20;2.50;;;1.90;;
70953;SDS011;58618;47.490;8.736;2023-03-21T07:25:08;2.53;;;1.97;;
70953;SDS011;58618;47.490;8.736;2023-03-21T07:27:57;2.58;;;1.90;;
70953;SDS011;58618;47.490;8.736;2023-03-21T07:30:50;2.40;;;1.95;;
70953;SDS011;58618;47.490;8.736;2023-03-21T07:33:39;4.07;;;1.80;;
70953;SDS011;58618;47.490;8.736;2023-03-21T07:36:26;3.03;;;1.88;;
70953;SDS011;58618;47.490;8.736;2023-03-21T07:39:13;1.67;;;1.43;;
70953;SDS011;58618;47.490;8.736;2023-03-21T07:42:02;2.45;;;1.63;;
70953;SDS011;58618;47.490;8.736;2023-03-21T07:44:51;2.20;;;1.90;;
70953;SDS011;58618;47.490;8.736;2023-03-21T07:47:39;2.05;;;1.73;;
70953;SDS011;58618;47.490;8.736;2023-03-21T07:50:27;2.60;;;1.95;;
70953;SDS011;58618;47.490;8.736;2023-03-21T07:53:14;2.70;;;1.90;;
70953;SDS011;58618;47.490;8.736;2023-03-21T07:56:02;1.90;;;1.45;;
70953;SDS011;58618;47.490;8.736;2023-03-21T07:58:49;2.95;;;1.73;;
70953;SDS011;58618;47.490;8.736;2023-03-21T08:01:38;2.08;;;1.70;;
70953;SDS011;58618;47.490;8.736;2023-03-21T08:04:25;3.08;;;1.85;;
70953;SDS011;58618;47.490;8.736;2023-03-21T08:07:12;2.97;;;1.90;;
70953;SDS011;58618;47.490;8.736;2023-03-21T08:10:00;2.38;;;1.88;;
70953;SDS011;58618;47.490;8.736;2023-03-21T08:12:48;2.92;;;1.90;;
70953;SDS011;58618;47.490;8.736;2023-03-21T08:15:35;2.97;;;1.88;;
70953;SDS011;58618;47.490;8.736;2023-03-21T08:18:25;3.00;;;1.88;;
70953;SDS011;58618;47.490;8.736;2023-03-21T08:21:13;2.93;;;1.73;;
70953;SDS011;58618;47.490;8.736;2023-03-21T08:24:00;2.05;;;1.80;;
70953;SDS011;58618;47.490;8.736;2023-03-21T08:26:47;3.03;;;2.00;;
70953;SDS011;58618;47.490;8.736;2023-03-21T08:29:36;2.08;;;1.63;;
70953;SDS011;58618;47.490;8.736;2023-03-21T08:32:25;2.05;;;1.73;;
70953;SDS011;58618;47.490;8.736;2023-03-21T08:35:17;2.60;;;1.83;;
70953;SDS011;58618;47.490;8.736;2023-03-21T08:38:05;2.28;;;1.80;;
70953;SDS011;58618;47.490;8.736;2023-03-21T08:40:53;2.70;;;1.80;;
70953;SDS011;58618;47.490;8.736;2023-03-21T08:43:40;2.90;;;1.83;;
70953;SDS011;58618;47.490;8.736;2023-03-21T08:46:28;2.05;;;1.63;;
70953;SDS011;58618;47.490;8.736;2023-03-21T08:49:16;2.60;;;2.03;;
70953;SDS011;58618;47.490;8.736;2023-03-21T08:52:05;2.80;;;2.00;;
70953;SDS011;58618;47.490;8.736;2023-03-21T08:54:52;3.13;;;1.92;;
70953;SDS011;58618;47.490;8.736;2023-03-21T08:57:40;2.75;;;1.98;;
70953;SDS011;58618;47.490;8.736;2023-03-21T09:00:27;4.03;;;1.98;;
70953;SDS011;58618;47.490;8.736;2023-03-21T09:03:16;2.20;;;1.77;;
70953;SDS011;58618;47.490;8.736;2023-03-21T09:06:08;2.50;;;1.77;;
70953;SDS011;58618;47.490;8.736;2023-03-21T09:08:58;2.45;;;1.80;;
70953;SDS011;58618;47.490;8.736;2023-03-21T09:11:46;2.40;;;1.98;;
70953;SDS011;58618;47.490;8.736;2023-03-21T09:14:33;2.67;;;1.80;;
70953;SDS011;58618;47.490;8.736;2023-03-21T09:17:20;1.93;;;1.70;;
70953;SDS011;58618;47.490;8.736;2023-03-21T09:20:08;2.50;;;1.88;;
70953;SDS011;58618;47.490;8.736;2023-03-21T09:23:03;2.78;;;2.13;;
70953;SDS011;58618;47.490;8.736;2023-03-21T09:25:52;2.83;;;1.90;;
70953;SDS011;58618;47.490;8.736;2023-03-21T09:28:39;2.75;;;2.10;;
70953;SDS011;58618;47.490;8.736;2023-03-21T09:31:27;3.00;;;2.00;;
70953;SDS011;58618;47.490;8.736;2023-03-21T09:34:15;2.55;;;1.80;;
70953;SDS011;58618;47.490;8.736;2023-03-21T09:37:03;2.42;;;1.95;;
70953;SDS011;58618;47.490;8.736;2023-03-21T09:39:54;2.28;;;1.85;;
70953;SDS011;58618;47.490;8.736;2023-03-21T09:42:45;3.03;;;1.92;;
70953;SDS011;58618;47.490;8.736;2023-03-21T09:45:45;2.43;;;1.80;;
70953;SDS011;58618;47.490;8.736;2023-03-21T09:48:41;2.53;;;2.03;;
70953;SDS011;58618;47.490;8.736;2023-03-21T09:51:38;4.57;;;2.42;;
70953;SDS011;58618;47.490;8.736;2023-03-21T09:54:32;3.45;;;1.90;;
70953;SDS011;58618;47.490;8.736;2023-03-21T09:57:26;3.42;;;2.30;;
70953;SDS011;58618;47.490;8.736;2023-03-21T10:00:21;2.90;;;2.20;;
70953;SDS011;58618;47.490;8.736;2023-03-21T10:03:17;2.58;;;1.90;;
70953;SDS011;58618;47.490;8.736;2023-03-21T10:06:10;3.90;;;2.20;;
70953;SDS011;58618;47.490;8.736;2023-03-21T10:09:02;2.85;;;2.20;;
70953;SDS011;58618;47.490;8.736;2023-03-21T10:11:53;3.13;;;2.13;;
70953;SDS011;58618;47.490;8.736;2023-03-21T10:14:45;2.80;;;1.77;;
70953;SDS011;58618;47.490;8.736;2023-03-21T10:17:37;3.17;;;1.90;;
70953;SDS011;58618;47.490;8.736;2023-03-21T10:20:29;2.80;;;1.98;;
70953;SDS011;58618;47.490;8.736;2023-03-21T10:23:18;3.03;;;2.00;;
70953;SDS011;58618;47.490;8.736;2023-03-21T10:26:08;4.07;;;2.20;;
70953;SDS011;58618;47.490;8.736;2023-03-21T10:28:57;3.30;;;1.90;;
70953;SDS011;58618;47.490;8.736;2023-03-21T10:31:47;3.40;;;2.33;;
70953;SDS011;58618;47.490;8.736;2023-03-21T10:34:38;3.15;;;2.40;;
70953;SDS011;58618;47.490;8.736;2023-03-21T10:37:28;5.50;;;2.50;;
70953;SDS011;58618;47.490;8.736;2023-03-21T10:40:17;3.95;;;2.53;;
70953;SDS011;58618;47.490;8.736;2023-03-21T10:43:19;3.43;;;2.40;;
70953;SDS011;58618;47.490;8.736;2023-03-21T10:46:19;3.72;;;2.47;;
70953;SDS011;58618;47.490;8.736;2023-03-21T10:49:08;4.60;;;2.65;;
70953;SDS011;58618;47.490;8.736;2023-03-21T10:51:57;3.58;;;2.42;;
70953;SDS011;58618;47.490;8.736;2023-03-21T10:54:48;4.22;;;2.83;;
70953;SDS011;58618;47.490;8.736;2023-03-21T10:57:36;4.30;;;2.90;;
70953;SDS011;58618;47.490;8.736;2023-03-21T11:00:25;5.50;;;3.30;;
70953;SDS011;58618;47.490;8.736;2023-03-21T11:03:18;5.78;;;3.75;;
70953;SDS011;58618;47.490;8.736;2023-03-21T11:06:10;4.93;;;3.25;;
70953;SDS011;58618;47.490;8.736;2023-03-21T11:09:05;5.38;;;3.50;;
70953;SDS011;58618;47.490;8.736;2023-03-21T11:12:00;5.17;;;3.40;;
70953;SDS011;58618;47.490;8.736;2023-03-21T11:14:49;5.15;;;2.97;;
70953;SDS011;58618;47.490;8.736;2023-03-21T11:17:37;4.45;;;3.10;;
70953;SDS011;58618;47.490;8.736;2023-03-21T11:20:25;4.38;;;2.88;;
70953;SDS011;58618;47.490;8.736;2023-03-21T11:23:16;3.42;;;2.65;;
70953;SDS011;58618;47.490;8.736;2023-03-21T11:26:07;3.90;;;2.60;;
70953;SDS011;58618;47.490;8.736;2023-03-21T11:28:56;3.97;;;2.65;;
70953;SDS011;58618;47.490;8.736;2023-03-21T11:31:44;3.22;;;2.30;;
70953;SDS011;58618;47.490;8.736;2023-03-21T11:34:32;2.83;;;2.15;;
70953;SDS011;58618;47.490;8.736;2023-03-21T11:37:27;3.80;;;2.35;;
70953;SDS011;58618;47.490;8.736;2023-03-21T11:40:20;3.37;;;2.23;;
70953;SDS011;58618;47.490;8.736;2023-03-21T11:43:25;3.63;;;2.20;;
70953;SDS011;58618;47.490;8.736;2023-03-21T11:46:14;2.08;;;1.80;;
70953;SDS011;58618;47.490;8.736;2023-03-21T11:49:02;2.85;;;2.15;;
70953;SDS011;58618;47.490;8.736;2023-03-21T11:51:52;3.40;;;2.30;;
70953;SDS011;58618;47.490;8.736;2023-03-21T11:54:55;2.40;;;2.00;;
70953;SDS011;58618;47.490;8.736;2023-03-21T11:57:56;2.58;;;1.90;;
70953;SDS011;58618;47.490;8.736;2023-03-21T12:00:53;3.00;;;2.28;;
70953;SDS011;58618;47.490;8.736;2023-03-21T12:07:08;2.72;;;1.98;;
70953;SDS011;58618;47.490;8.736;2023-03-21T12:10:24;3.83;;;2.00;;
70953;SDS011;58618;47.490;8.736;2023-03-21T12:13:24;2.38;;;1.90;;
70953;SDS011;58618;47.490;8.736;2023-03-21T12:16:26;2.45;;;1.95;;
70953;SDS011;58618;47.490;8.736;2023-03-21T12:19:29;2.92;;;1.90;;
70953;SDS011;58618;47.490;8.736;2023-03-21T12:22:28;2.33;;;1.60;;
70953;SDS011;58618;47.490;8.736;2023-03-21T12:25:25;2.53;;;1.60;;
70953;SDS011;58618;47.490;8.736;2023-03-21T12:28:23;1.98;;;1.63;;
70953;SDS011;58618;47.490;8.736;2023-03-21T12:31:27;2.75;;;1.90;;
70953;SDS011;58618;47.490;8.736;2023-03-21T12:34:46;2.28;;;1.70;;
70953;SDS011;58618;47.490;8.736;2023-03-21T12:37:47;2.38;;;1.73;;
70953;SDS011;58618;47.490;8.736;2023-03-21T12:40:48;2.37;;;1.70;;
70953;SDS011;58618;47.490;8.736;2023-03-21T12:43:46;1.75;;;1.40;;
70953;SDS011;58618;47.490;8.736;2023-03-21T12:46:41;2.38;;;1.55;;
70953;SDS011;58618;47.490;8.736;2023-03-21T12:49:32;2.67;;;1.70;;
70953;SDS011;58618;47.490;8.736;2023-03-21T12:52:23;2.10;;;1.38;;
70953;SDS011;58618;47.490;8.736;2023-03-21T12:55:15;2.93;;;1.77;;
70953;SDS011;58618;47.490;8.736;2023-03-21T12:58:08;2.33;;;1.67;;
70953;SDS011;58618;47.490;8.736;2023-03-21T13:01:03;1.58;;;1.27;;
70953;SDS011;58618;47.490;8.736;2023-03-21T13:03:58;2.60;;;1.60;;
70953;SDS011;58618;47.490;8.736;2023-03-21T13:06:54;2.88;;;1.65;;
70953;SDS011;58618;47.490;8.736;2023-03-21T13:09:46;1.83;;;1.47;;
70953;SDS011;58618;47.490;8.736;2023-03-21T13:12:37;2.28;;;1.80;;
70953;SDS011;58618;47.490;8.736;2023-03-21T13:15:39;2.03;;;1.60;;
70953;SDS011;58618;47.490;8.736;2023-03-21T13:18:52;2.08;;;1.55;;
70953;SDS011;58618;47.490;8.736;2023-03-21T13:21:49;2.92;;;2.05;;
70953;SDS011;58618;47.490;8.736;2023-03-21T13:24:46;2.53;;;1.80;;
70953;SDS011;58618;47.490;8.736;2023-03-21T13:27:35;2.17;;;1.65;;
70953;SDS011;58618;47.490;8.736;2023-03-21T13:30:25;2.00;;;1.50;;
70953;SDS011;58618;47.490;8.736;2023-03-21T13:33:14;3.65;;;1.90;;
70953;SDS011;58618;47.490;8.736;2023-03-21T13:36:08;2.53;;;1.90;;
70953;SDS011;58618;47.490;8.736;2023-03-21T13:38:59;1.67;;;1.37;;
70953;SDS011;58618;47.490;8.736;2023-03-21T13:41:50;2.08;;;1.85;;
70953;SDS011;58618;47.490;8.736;2023-03-21T13:44:40;2.30;;;1.77;;
70953;SDS011;58618;47.490;8.736;2023-03-21T13:47:36;2.60;;;1.58;;
70953;SDS011;58618;47.490;8.736;2023-03-21T13:50:27;2.63;;;1.80;;
70953;SDS011;58618;47.490;8.736;2023-03-21T13:53:31;2.50;;;1.87;;
70953;SDS011;58618;47.490;8.736;2023-03-21T13:56:22;2.53;;;1.63;;
70953;SDS011;58618;47.490;8.736;2023-03-21T13:59:10;2.92;;;1.83;;
70953;SDS011;58618;47.490;8.736;2023-03-21T14:01:59;2.53;;;1.98;;
70953;SDS011;58618;47.490;8.736;2023-03-21T14:04:52;3.95;;;1.80;;
70953;SDS011;58618;47.490;8.736;2023-03-21T14:07:43;2.33;;;1.53;;
70953;SDS011;58618;47.490;8.736;2023-03-21T14:10:36;2.20;;;1.67;;
70953;SDS011;58618;47.490;8.736;2023-03-21T14:13:25;3.40;;;1.80;;
70953;SDS011;58618;47.490;8.736;2023-03-21T14:16:14;2.40;;;1.70;;
70953;SDS011;58618;47.490;8.736;2023-03-21T14:19:03;3.33;;;2.03;;
70953;SDS011;58618;47.490;8.736;2023-03-21T14:21:51;2.40;;;1.90;;
70953;SDS011;58618;47.490;8.736;2023-03-21T14:24:39;2.38;;;1.73;;
70953;SDS011;58618;47.490;8.736;2023-03-21T14:27:28;2.45;;;1.40;;
70953;SDS011;58618;47.490;8.736;2023-03-21T14:30:19;1.98;;;1.60;;
70953;SDS011;58618;47.490;8.736;2023-03-21T14:33:11;2.35;;;1.50;;
70953;SDS011;58618;47.490;8.736;2023-03-21T14:36:03;2.63;;;1.67;;
70953;SDS011;58618;47.490;8.736;2023-03-21T14:39:01;2.10;;;1.48;;
70953;SDS011;58618;47.490;8.736;2023-03-21T14:41:52;2.15;;;1.60;;
70953;SDS011;58618;47.490;8.736;2023-03-21T14:44:47;2.17;;;1.63;;
70953;SDS011;58618;47.490;8.736;2023-03-21T14:47:35;2.30;;;1.73;;
70953;SDS011;58618;47.490;8.736;2023-03-21T14:50:23;3.07;;;2.13;;
70953;SDS011;58618;47.490;8.736;2023-03-21T14:53:17;2.42;;;1.52;;
70953;SDS011;58618;47.490;8.736;2023-03-21T14:56:09;2.53;;;1.90;;
70953;SDS011;58618;47.490;8.736;2023-03-21T14:59:01;2.35;;;1.80;;
70953;SDS011;58618;47.490;8.736;2023-03-21T15:01:50;2.40;;;1.70;;
70953;SDS011;58618;47.490;8.736;2023-03-21T15:04:39;2.40;;;1.47;;
70953;SDS011;58618;47.490;8.736;2023-03-21T15:07:29;2.97;;;1.88;;
70953;SDS011;58618;47.490;8.736;2023-03-21T15:10:17;1.75;;;1.35;;
70953;SDS011;58618;47.490;8.736;2023-03-21T15:13:12;2.83;;;1.92;;
70953;SDS011;58618;47.490;8.736;2023-03-21T15:16:01;2.00;;;1.60;;
70953;SDS011;58618;47.490;8.736;2023-03-21T15:18:50;2.90;;;1.97;;
70953;SDS011;58618;47.490;8.736;2023-03-21T15:21:39;2.35;;;1.75;;
70953;SDS011;58618;47.490;8.736;2023-03-21T15:24:31;2.58;;;1.80;;
70953;SDS011;58618;47.490;8.736;2023-03-21T15:27:22;2.50;;;1.80;;
70953;SDS011;58618;47.490;8.736;2023-03-21T15:30:17;2.50;;;1.60;;
70953;SDS011;58618;47.490;8.736;2023-03-21T15:33:07;2.33;;;1.70;;
70953;SDS011;58618;47.490;8.736;2023-03-21T15:35:58;2.80;;;1.75;;
70953;SDS011;58618;47.490;8.736;2023-03-21T15:38:46;2.67;;;1.80;;
70953;SDS011;58618;47.490;8.736;2023-03-21T15:41:34;3.92;;;1.70;;
70953;SDS011;58618;47.490;8.736;2023-03-21T15:44:22;2.50;;;1.88;;
70953;SDS011;58618;47.490;8.736;2023-03-21T15:47:11;1.90;;;1.47;;
70953;SDS011;58618;47.490;8.736;2023-03-21T15:49:59;2.33;;;1.85;;
70953;SDS011;58618;47.490;8.736;2023-03-21T15:52:57;1.70;;;1.40;;
70953;SDS011;58618;47.490;8.736;2023-03-21T15:55:47;3.15;;;1.80;;
70953;SDS011;58618;47.490;8.736;2023-03-21T15:58:38;1.83;;;1.40;;
70953;SDS011;58618;47.490;8.736;2023-03-21T16:01:29;2.67;;;1.60;;
70953;SDS011;58618;47.490;8.736;2023-03-21T16:04:19;2.25;;;1.77;;
70953;SDS011;58618;47.490;8.736;2023-03-21T16:07:12;2.08;;;1.45;;
70953;SDS011;58618;47.490;8.736;2023-03-21T16:10:03;1.75;;;1.30;;
70953;SDS011;58618;47.490;8.736;2023-03-21T16:12:51;2.50;;;1.63;;
70953;SDS011;58618;47.490;8.736;2023-03-21T16:15:38;2.13;;;1.40;;
70953;SDS011;58618;47.490;8.736;2023-03-21T16:18:26;2.63;;;1.40;;
70953;SDS011;58618;47.490;8.736;2023-03-21T16:21:17;1.95;;;1.50;;
70953;SDS011;58618;47.490;8.736;2023-03-21T16:24:06;2.88;;;1.30;;
70953;SDS011;58618;47.490;8.736;2023-03-21T16:26:56;1.75;;;1.27;;
70953;SDS011;58618;47.490;8.736;2023-03-21T16:29:44;1.60;;;1.23;;
70953;SDS011;58618;47.490;8.736;2023-03-21T16:32:31;1.35;;;1.10;;
70953;SDS011;58618;47.490;8.736;2023-03-21T16:35:19;2.20;;;1.30;;
70953;SDS011;58618;47.490;8.736;2023-03-21T16:38:08;2.58;;;1.27;;
70953;SDS011;58618;47.490;8.736;2023-03-21T16:40:55;1.80;;;1.00;;
70953;SDS011;58618;47.490;8.736;2023-03-21T16:43:44;1.17;;;0.80;;
70953;SDS011;58618;47.490;8.736;2023-03-21T16:46:32;2.25;;;1.17;;
70953;SDS011;58618;47.490;8.736;2023-03-21T16:49:19;1.33;;;0.95;;
70953;SDS011;58618;47.490;8.736;2023-03-21T16:52:09;2.75;;;1.20;;
70953;SDS011;58618;47.490;8.736;2023-03-21T16:54:57;1.23;;;0.98;;
70953;SDS011;58618;47.490;8.736;2023-03-21T16:57:45;1.83;;;1.00;;
70953;SDS011;58618;47.490;8.736;2023-03-21T17:00:34;1.70;;;0.75;;
70953;SDS011;58618;47.490;8.736;2023-03-21T17:03:22;2.47;;;0.90;;
70953;SDS011;58618;47.490;8.736;2023-03-21T17:06:11;1.15;;;0.85;;
70953;SDS011;58618;47.490;8.736;2023-03-21T17:09:00;1.38;;;0.98;;
70953;SDS011;58618;47.490;8.736;2023-03-21T17:11:49;1.30;;;1.07;;
70953;SDS011;58618;47.490;8.736;2023-03-21T17:14:36;1.10;;;0.93;;
70953;SDS011;58618;47.490;8.736;2023-03-21T17:17:25;1.38;;;1.00;;
70953;SDS011;58618;47.490;8.736;2023-03-21T17:20:14;1.80;;;1.00;;